sensor_id;sensor_type;location;lat;lon;timestamp;P1;durP1;ratioP1;P2;durP2;ratioP2
27558;SDS011;15002;52.028;5.670;2022-08-14T00:00:13;7.63;;;6.90;;
27558;SDS011;15002;52.028;5.670;2022-08-14T00:02:41;10.27;;;6.72;;
27558;SDS011;15002;52.028;5.670;2022-08-14T00:05:07;8.88;;;7.20;;
27558;SDS011;15002;52.028;5.670;2022-08-14T00:07:35;7.55;;;6.78;;
27558;SDS011;15002;52.028;5.670;2022-08-14T00:10:01;11.43;;;7.18;;
27558;SDS011;15002;52.028;5.670;2022-08-14T00:12:28;7.30;;;6.70;;
27558;SDS011;15002;52.028;5.670;2022-08-14T00:14:55;10.27;;;7.57;;
27558;SDS011;15002;52.028;5.670;2022-08-14T00:17:21;12.90;;;7.07;;
27558;SDS011;15002;52.028;5.670;2022-08-14T00:19:48;13.07;;;7.38;;
27558;SDS011;15002;52.028;5.670;2022-08-14T00:22:14;11.82;;;7.00;;
27558;SDS011;15002;52.028;5.670;2022-08-14T00:24:43;8.82;;;7.20;;
27558;SDS011;15002;52.028;5.670;2022-08-14T00:27:09;7.72;;;6.93;;
27558;SDS011;15002;52.028;5.670;2022-08-14T00:29:35;9.13;;;7.00;;
27558;SDS011;15002;52.028;5.670;2022-08-14T00:32:01;8.07;;;7.13;;
27558;SDS011;15002;52.028;5.670;2022-08-14T00:34:27;9.68;;;7.28;;
27558;SDS011;15002;52.028;5.670;2022-08-14T00:36:53;7.82;;;7.05;;
27558;SDS011;15002;52.028;5.670;2022-08-14T00:39:18;9.80;;;7.45;;
27558;SDS011;15002;52.028;5.670;2022-08-14T00:41:45;12.20;;;8.18;;
27558;SDS011;15002;52.028;5.670;2022-08-14T00:44:11;7.97;;;7.18;;
27558;SDS011;15002;52.028;5.670;2022-08-14T00:46:38;9.57;;;7.18;;
27558;SDS011;15002;52.028;5.670;2022-08-14T00:49:05;8.95;;;7.35;;
27558;SDS011;15002;52.028;5.670;2022-08-14T00:51:32;9.93;;;7.53;;
27558;SDS011;15002;52.028;5.670;2022-08-14T00:53:58;9.80;;;7.45;;
27558;SDS011;15002;52.028;5.670;2022-08-14T00:56:26;8.55;;;7.70;;
27558;SDS011;15002;52.028;5.670;2022-08-14T00:58:56;8.98;;;7.70;;
27558;SDS011;15002;52.028;5.670;2022-08-14T01:01:24;7.90;;;7.10;;
27558;SDS011;15002;52.028;5.670;2022-08-14T01:03:49;11.60;;;7.15;;
27558;SDS011;15002;52.028;5.670;2022-08-14T01:06:17;11.57;;;7.63;;
27558;SDS011;15002;52.028;5.670;2022-08-14T01:08:43;8.65;;;7.78;;
27558;SDS011;15002;52.028;5.670;2022-08-14T01:11:10;8.43;;;7.68;;
27558;SDS011;15002;52.028;5.670;2022-08-14T01:13:40;8.55;;;7.60;;
27558;SDS011;15002;52.028;5.670;2022-08-14T01:16:08;9.93;;;7.93;;
27558;SDS011;15002;52.028;5.670;2022-08-14T01:18:36;10.70;;;7.45;;
27558;SDS011;15002;52.028;5.670;2022-08-14T01:21:24;8.15;;;7.35;;
27558;SDS011;15002;52.028;5.670;2022-08-14T01:23:58;8.38;;;7.20;;
27558;SDS011;15002;52.028;5.670;2022-08-14T01:26:25;8.77;;;7.63;;
27558;SDS011;15002;52.028;5.670;2022-08-14T01:28:53;8.02;;;7.22;;
27558;SDS011;15002;52.028;5.670;2022-08-14T01:31:24;11.52;;;7.28;;
27558;SDS011;15002;52.028;5.670;2022-08-14T01:33:55;9.75;;;7.90;;
27558;SDS011;15002;52.028;5.670;2022-08-14T01:36:24;10.27;;;7.72;;
27558;SDS011;15002;52.028;5.670;2022-08-14T01:38:51;10.70;;;7.60;;
27558;SDS011;15002;52.028;5.670;2022-08-14T01:41:21;10.65;;;7.93;;
27558;SDS011;15002;52.028;5.670;2022-08-14T01:43:48;10.25;;;7.30;;
27558;SDS011;15002;52.028;5.670;2022-08-14T01:46:22;7.95;;;7.15;;
27558;SDS011;15002;52.028;5.670;2022-08-14T01:48:49;17.80;;;7.43;;
27558;SDS011;15002;52.028;5.670;2022-08-14T01:51:20;9.13;;;7.72;;
27558;SDS011;15002;52.028;5.670;2022-08-14T01:53:48;9.35;;;7.60;;
27558;SDS011;15002;52.028;5.670;2022-08-14T01:56:16;11.50;;;7.80;;
27558;SDS011;15002;52.028;5.670;2022-08-14T01:58:43;8.98;;;7.88;;
27558;SDS011;15002;52.028;5.670;2022-08-14T02:01:16;8.18;;;7.32;;
27558;SDS011;15002;52.028;5.670;2022-08-14T02:03:44;7.93;;;7.13;;
27558;SDS011;15002;52.028;5.670;2022-08-14T02:06:10;9.88;;;7.78;;
27558;SDS011;15002;52.028;5.670;2022-08-14T02:08:37;8.75;;;7.90;;
27558;SDS011;15002;52.028;5.670;2022-08-14T02:11:05;11.55;;;7.57;;
27558;SDS011;15002;52.028;5.670;2022-08-14T02:16:26;9.32;;;7.72;;
27558;SDS011;15002;52.028;5.670;2022-08-14T02:18:55;8.73;;;7.93;;
27558;SDS011;15002;52.028;5.670;2022-08-14T02:21:22;8.45;;;7.55;;
27558;SDS011;15002;52.028;5.670;2022-08-14T02:23:49;8.60;;;7.70;;
27558;SDS011;15002;52.028;5.670;2022-08-14T02:26:18;10.38;;;7.75;;
27558;SDS011;15002;52.028;5.670;2022-08-14T02:28:49;9.05;;;7.68;;
27558;SDS011;15002;52.028;5.670;2022-08-14T02:31:17;9.00;;;7.78;;
27558;SDS011;15002;52.028;5.670;2022-08-14T02:33:43;11.18;;;7.97;;
27558;SDS011;15002;52.028;5.670;2022-08-14T02:36:11;9.65;;;8.02;;
27558;SDS011;15002;52.028;5.670;2022-08-14T02:38:38;8.88;;;7.70;;
27558;SDS011;15002;52.028;5.670;2022-08-14T02:41:08;11.57;;;8.50;;
27558;SDS011;15002;52.028;5.670;2022-08-14T02:43:37;8.68;;;7.72;;
27558;SDS011;15002;52.028;5.670;2022-08-14T02:46:05;9.30;;;8.27;;
27558;SDS011;15002;52.028;5.670;2022-08-14T02:48:34;9.37;;;8.43;;
27558;SDS011;15002;52.028;5.670;2022-08-14T02:51:04;15.40;;;8.20;;
27558;SDS011;15002;52.028;5.670;2022-08-14T02:53:31;10.05;;;8.13;;
27558;SDS011;15002;52.028;5.670;2022-08-14T02:55:58;10.38;;;8.13;;
27558;SDS011;15002;52.028;5.670;2022-08-14T02:58:24;8.82;;;7.93;;
27558;SDS011;15002;52.028;5.670;2022-08-14T03:00:50;9.23;;;7.85;;
27558;SDS011;15002;52.028;5.670;2022-08-14T03:03:16;12.20;;;8.73;;
27558;SDS011;15002;52.028;5.670;2022-08-14T03:05:44;11.48;;;9.05;;
27558;SDS011;15002;52.028;5.670;2022-08-14T03:08:10;9.82;;;8.30;;
27558;SDS011;15002;52.028;5.670;2022-08-14T03:10:37;11.35;;;8.80;;
27558;SDS011;15002;52.028;5.670;2022-08-14T03:13:04;9.50;;;8.38;;
27558;SDS011;15002;52.028;5.670;2022-08-14T03:15:32;9.40;;;8.45;;
27558;SDS011;15002;52.028;5.670;2022-08-14T03:18:03;10.68;;;8.65;;
27558;SDS011;15002;52.028;5.670;2022-08-14T03:20:29;9.77;;;8.77;;
27558;SDS011;15002;52.028;5.670;2022-08-14T03:22:56;8.30;;;7.50;;
27558;SDS011;15002;52.028;5.670;2022-08-14T03:25:26;11.85;;;9.07;;
27558;SDS011;15002;52.028;5.670;2022-08-14T03:27:58;12.77;;;9.07;;
27558;SDS011;15002;52.028;5.670;2022-08-14T03:30:27;9.27;;;8.38;;
27558;SDS011;15002;52.028;5.670;2022-08-14T03:32:55;10.30;;;9.00;;
27558;SDS011;15002;52.028;5.670;2022-08-14T03:35:21;10.30;;;8.60;;
27558;SDS011;15002;52.028;5.670;2022-08-14T03:37:47;9.63;;;7.78;;
27558;SDS011;15002;52.028;5.670;2022-08-14T03:40:16;10.48;;;8.70;;
27558;SDS011;15002;52.028;5.670;2022-08-14T03:42:43;11.02;;;8.80;;
27558;SDS011;15002;52.028;5.670;2022-08-14T03:45:09;9.45;;;7.93;;
27558;SDS011;15002;52.028;5.670;2022-08-14T03:47:35;13.30;;;9.35;;
27558;SDS011;15002;52.028;5.670;2022-08-14T03:50:04;9.98;;;8.80;;
27558;SDS011;15002;52.028;5.670;2022-08-14T03:52:33;10.50;;;8.75;;
27558;SDS011;15002;52.028;5.670;2022-08-14T03:54:59;10.98;;;8.90;;
27558;SDS011;15002;52.028;5.670;2022-08-14T03:57:27;9.80;;;8.80;;
27558;SDS011;15002;52.028;5.670;2022-08-14T03:59:56;11.48;;;8.93;;
27558;SDS011;15002;52.028;5.670;2022-08-14T04:02:22;10.80;;;9.70;;
27558;SDS011;15002;52.028;5.670;2022-08-14T04:04:48;14.55;;;9.27;;
27558;SDS011;15002;52.028;5.670;2022-08-14T04:07:14;10.70;;;9.60;;
27558;SDS011;15002;52.028;5.670;2022-08-14T04:09:41;11.45;;;9.95;;
27558;SDS011;15002;52.028;5.670;2022-08-14T04:12:07;12.52;;;9.63;;
27558;SDS011;15002;52.028;5.670;2022-08-14T04:14:32;10.35;;;9.10;;
27558;SDS011;15002;52.028;5.670;2022-08-14T04:16:58;14.20;;;9.50;;
27558;SDS011;15002;52.028;5.670;2022-08-14T04:19:23;12.15;;;10.00;;
27558;SDS011;15002;52.028;5.670;2022-08-14T04:21:49;11.50;;;9.30;;
27558;SDS011;15002;52.028;5.670;2022-08-14T04:24:15;14.07;;;9.73;;
27558;SDS011;15002;52.028;5.670;2022-08-14T04:26:41;11.00;;;9.77;;
27558;SDS011;15002;52.028;5.670;2022-08-14T04:29:09;11.07;;;9.88;;
27558;SDS011;15002;52.028;5.670;2022-08-14T04:31:36;13.55;;;9.73;;
27558;SDS011;15002;52.028;5.670;2022-08-14T04:34:03;13.70;;;9.98;;
27558;SDS011;15002;52.028;5.670;2022-08-14T04:36:29;10.85;;;9.65;;
27558;SDS011;15002;52.028;5.670;2022-08-14T04:38:56;12.43;;;9.38;;
27558;SDS011;15002;52.028;5.670;2022-08-14T04:41:40;11.88;;;9.27;;
27558;SDS011;15002;52.028;5.670;2022-08-14T04:44:25;11.35;;;9.35;;
27558;SDS011;15002;52.028;5.670;2022-08-14T04:46:50;11.18;;;10.07;;
27558;SDS011;15002;52.028;5.670;2022-08-14T04:49:34;11.73;;;10.23;;
27558;SDS011;15002;52.028;5.670;2022-08-14T04:52:00;12.45;;;10.57;;
27558;SDS011;15002;52.028;5.670;2022-08-14T04:54:28;11.20;;;9.13;;
27558;SDS011;15002;52.028;5.670;2022-08-14T04:56:54;12.98;;;9.57;;
27558;SDS011;15002;52.028;5.670;2022-08-14T04:59:20;16.13;;;10.00;;
27558;SDS011;15002;52.028;5.670;2022-08-14T05:01:47;14.85;;;10.48;;
27558;SDS011;15002;52.028;5.670;2022-08-14T05:04:13;10.85;;;9.75;;
27558;SDS011;15002;52.028;5.670;2022-08-14T05:06:39;13.80;;;9.98;;
27558;SDS011;15002;52.028;5.670;2022-08-14T05:09:05;11.43;;;10.23;;
27558;SDS011;15002;52.028;5.670;2022-08-14T05:11:31;12.98;;;9.65;;
27558;SDS011;15002;52.028;5.670;2022-08-14T05:13:59;14.40;;;9.70;;
27558;SDS011;15002;52.028;5.670;2022-08-14T05:16:26;14.20;;;10.23;;
27558;SDS011;15002;52.028;5.670;2022-08-14T05:18:55;13.68;;;10.55;;
27558;SDS011;15002;52.028;5.670;2022-08-14T05:21:21;14.38;;;10.82;;
27558;SDS011;15002;52.028;5.670;2022-08-14T05:23:48;12.05;;;10.23;;
27558;SDS011;15002;52.028;5.670;2022-08-14T05:26:15;15.73;;;10.40;;
27558;SDS011;15002;52.028;5.670;2022-08-14T05:28:42;14.32;;;10.63;;
27558;SDS011;15002;52.028;5.670;2022-08-14T05:31:09;11.82;;;9.93;;
27558;SDS011;15002;52.028;5.670;2022-08-14T05:33:35;11.35;;;10.15;;
27558;SDS011;15002;52.028;5.670;2022-08-14T05:36:03;11.27;;;10.10;;
27558;SDS011;15002;52.028;5.670;2022-08-14T05:38:31;12.95;;;10.52;;
27558;SDS011;15002;52.028;5.670;2022-08-14T05:41:09;14.05;;;10.88;;
27558;SDS011;15002;52.028;5.670;2022-08-14T05:43:40;12.98;;;11.20;;
27558;SDS011;15002;52.028;5.670;2022-08-14T05:46:08;12.10;;;10.88;;
27558;SDS011;15002;52.028;5.670;2022-08-14T05:48:35;14.98;;;11.00;;
27558;SDS011;15002;52.028;5.670;2022-08-14T05:51:01;14.80;;;10.93;;
27558;SDS011;15002;52.028;5.670;2022-08-14T05:53:26;12.10;;;10.55;;
27558;SDS011;15002;52.028;5.670;2022-08-14T05:55:53;14.18;;;10.77;;
27558;SDS011;15002;52.028;5.670;2022-08-14T05:58:20;13.32;;;10.32;;
27558;SDS011;15002;52.028;5.670;2022-08-14T06:00:47;11.82;;;10.50;;
27558;SDS011;15002;52.028;5.670;2022-08-14T06:03:18;12.48;;;10.73;;
27558;SDS011;15002;52.028;5.670;2022-08-14T06:05:45;12.40;;;11.10;;
27558;SDS011;15002;52.028;5.670;2022-08-14T06:10:58;13.45;;;10.77;;
27558;SDS011;15002;52.028;5.670;2022-08-14T06:13:27;12.55;;;10.82;;
27558;SDS011;15002;52.028;5.670;2022-08-14T06:15:54;15.82;;;11.40;;
27558;SDS011;15002;52.028;5.670;2022-08-14T06:18:19;13.55;;;11.32;;
27558;SDS011;15002;52.028;5.670;2022-08-14T06:20:45;13.73;;;10.73;;
27558;SDS011;15002;52.028;5.670;2022-08-14T06:23:11;13.23;;;10.98;;
27558;SDS011;15002;52.028;5.670;2022-08-14T06:25:36;11.80;;;10.32;;
27558;SDS011;15002;52.028;5.670;2022-08-14T06:28:02;21.27;;;11.02;;
27558;SDS011;15002;52.028;5.670;2022-08-14T06:30:30;13.75;;;10.98;;
27558;SDS011;15002;52.028;5.670;2022-08-14T06:32:57;11.90;;;10.77;;
27558;SDS011;15002;52.028;5.670;2022-08-14T06:35:23;14.63;;;10.73;;
27558;SDS011;15002;52.028;5.670;2022-08-14T06:37:50;14.93;;;10.55;;
27558;SDS011;15002;52.028;5.670;2022-08-14T06:40:21;13.98;;;10.55;;
27558;SDS011;15002;52.028;5.670;2022-08-14T06:42:59;11.15;;;10.05;;
27558;SDS011;15002;52.028;5.670;2022-08-14T06:45:33;11.77;;;10.52;;
27558;SDS011;15002;52.028;5.670;2022-08-14T06:48:00;14.05;;;9.60;;
27558;SDS011;15002;52.028;5.670;2022-08-14T06:50:27;15.80;;;9.90;;
27558;SDS011;15002;52.028;5.670;2022-08-14T06:52:55;11.50;;;9.38;;
27558;SDS011;15002;52.028;5.670;2022-08-14T06:55:22;13.40;;;8.90;;
27558;SDS011;15002;52.028;5.670;2022-08-14T06:57:49;10.88;;;9.02;;
27558;SDS011;15002;52.028;5.670;2022-08-14T07:00:19;13.30;;;9.20;;
27558;SDS011;15002;52.028;5.670;2022-08-14T07:02:49;15.60;;;9.00;;
27558;SDS011;15002;52.028;5.670;2022-08-14T07:05:35;9.05;;;8.15;;
27558;SDS011;15002;52.028;5.670;2022-08-14T07:10:38;10.13;;;8.38;;
27558;SDS011;15002;52.028;5.670;2022-08-14T07:13:04;9.68;;;8.40;;
27558;SDS011;15002;52.028;5.670;2022-08-14T07:15:31;11.70;;;8.15;;
27558;SDS011;15002;52.028;5.670;2022-08-14T07:17:57;10.60;;;7.97;;
27558;SDS011;15002;52.028;5.670;2022-08-14T07:20:23;8.52;;;7.55;;
27558;SDS011;15002;52.028;5.670;2022-08-14T07:22:51;11.32;;;7.97;;
27558;SDS011;15002;52.028;5.670;2022-08-14T07:25:22;8.70;;;7.88;;
27558;SDS011;15002;52.028;5.670;2022-08-14T07:27:51;9.73;;;7.60;;
27558;SDS011;15002;52.028;5.670;2022-08-14T07:30:17;9.70;;;7.45;;
27558;SDS011;15002;52.028;5.670;2022-08-14T07:32:43;7.68;;;7.05;;
27558;SDS011;15002;52.028;5.670;2022-08-14T07:35:09;8.20;;;7.43;;
27558;SDS011;15002;52.028;5.670;2022-08-14T07:37:34;8.70;;;7.35;;
27558;SDS011;15002;52.028;5.670;2022-08-14T07:40:01;8.52;;;7.68;;
27558;SDS011;15002;52.028;5.670;2022-08-14T07:42:28;8.20;;;7.47;;
27558;SDS011;15002;52.028;5.670;2022-08-14T07:44:56;8.40;;;7.38;;
27558;SDS011;15002;52.028;5.670;2022-08-14T07:47:22;8.15;;;7.35;;
27558;SDS011;15002;52.028;5.670;2022-08-14T07:49:59;8.02;;;7.22;;
27558;SDS011;15002;52.028;5.670;2022-08-14T07:52:27;11.00;;;8.20;;
27558;SDS011;15002;52.028;5.670;2022-08-14T07:54:53;10.95;;;7.72;;
27558;SDS011;15002;52.028;5.670;2022-08-14T07:57:19;9.25;;;7.63;;
27558;SDS011;15002;52.028;5.670;2022-08-14T07:59:45;8.15;;;7.35;;
27558;SDS011;15002;52.028;5.670;2022-08-14T08:02:13;8.20;;;7.45;;
27558;SDS011;15002;52.028;5.670;2022-08-14T08:04:40;8.27;;;7.47;;
27558;SDS011;15002;52.028;5.670;2022-08-14T08:07:09;8.13;;;7.30;;
27558;SDS011;15002;52.028;5.670;2022-08-14T08:09:35;10.40;;;7.18;;
27558;SDS011;15002;52.028;5.670;2022-08-14T08:12:01;8.57;;;7.78;;
27558;SDS011;15002;52.028;5.670;2022-08-14T08:14:29;9.32;;;7.70;;
27558;SDS011;15002;52.028;5.670;2022-08-14T08:16:56;13.00;;;8.30;;
27558;SDS011;15002;52.028;5.670;2022-08-14T08:19:23;8.55;;;7.78;;
27558;SDS011;15002;52.028;5.670;2022-08-14T08:21:49;12.85;;;8.20;;
27558;SDS011;15002;52.028;5.670;2022-08-14T08:24:15;12.45;;;8.00;;
27558;SDS011;15002;52.028;5.670;2022-08-14T08:26:41;7.95;;;7.25;;
27558;SDS011;15002;52.028;5.670;2022-08-14T08:29:06;9.30;;;8.30;;
27558;SDS011;15002;52.028;5.670;2022-08-14T08:31:44;9.23;;;7.78;;
27558;SDS011;15002;52.028;5.670;2022-08-14T08:34:11;9.18;;;7.95;;
27558;SDS011;15002;52.028;5.670;2022-08-14T08:36:41;10.00;;;7.47;;
27558;SDS011;15002;52.028;5.670;2022-08-14T08:39:07;8.60;;;7.70;;
27558;SDS011;15002;52.028;5.670;2022-08-14T08:41:43;21.27;;;8.25;;
27558;SDS011;15002;52.028;5.670;2022-08-14T08:44:11;8.48;;;7.45;;
27558;SDS011;15002;52.028;5.670;2022-08-14T08:46:37;9.45;;;7.72;;
27558;SDS011;15002;52.028;5.670;2022-08-14T08:49:04;11.98;;;8.15;;
27558;SDS011;15002;52.028;5.670;2022-08-14T08:59:25;12.73;;;7.45;;
27558;SDS011;15002;52.028;5.670;2022-08-14T09:01:54;8.85;;;7.38;;
27558;SDS011;15002;52.028;5.670;2022-08-14T09:04:21;9.13;;;7.75;;
27558;SDS011;15002;52.028;5.670;2022-08-14T09:06:48;9.70;;;7.80;;
27558;SDS011;15002;52.028;5.670;2022-08-14T09:11:47;9.02;;;8.13;;
27558;SDS011;15002;52.028;5.670;2022-08-14T09:14:13;12.02;;;8.38;;
27558;SDS011;15002;52.028;5.670;2022-08-14T09:16:39;11.52;;;8.48;;
27558;SDS011;15002;52.028;5.670;2022-08-14T09:19:05;9.35;;;8.15;;
27558;SDS011;15002;52.028;5.670;2022-08-14T09:21:31;10.77;;;8.50;;
27558;SDS011;15002;52.028;5.670;2022-08-14T09:23:58;9.38;;;8.10;;
27558;SDS011;15002;52.028;5.670;2022-08-14T09:26:25;11.57;;;7.38;;
27558;SDS011;15002;52.028;5.670;2022-08-14T09:28:51;14.88;;;8.07;;
27558;SDS011;15002;52.028;5.670;2022-08-14T09:31:17;12.90;;;8.70;;
27558;SDS011;15002;52.028;5.670;2022-08-14T09:36:33;14.07;;;8.07;;
27558;SDS011;15002;52.028;5.670;2022-08-14T09:39:24;8.25;;;7.45;;
27558;SDS011;15002;52.028;5.670;2022-08-14T09:47:19;8.85;;;6.80;;
27558;SDS011;15002;52.028;5.670;2022-08-14T09:49:45;9.38;;;7.13;;
27558;SDS011;15002;52.028;5.670;2022-08-14T09:52:12;8.30;;;6.45;;
27558;SDS011;15002;52.028;5.670;2022-08-14T09:54:41;7.88;;;6.93;;
27558;SDS011;15002;52.028;5.670;2022-08-14T09:57:09;7.60;;;7.00;;
27558;SDS011;15002;52.028;5.670;2022-08-14T09:59:39;7.63;;;6.93;;
27558;SDS011;15002;52.028;5.670;2022-08-14T10:04:59;8.45;;;6.88;;
27558;SDS011;15002;52.028;5.670;2022-08-14T10:07:34;7.10;;;6.50;;
27558;SDS011;15002;52.028;5.670;2022-08-14T10:10:38;6.63;;;5.88;;
27558;SDS011;15002;52.028;5.670;2022-08-14T10:13:05;7.57;;;5.25;;
27558;SDS011;15002;52.028;5.670;2022-08-14T10:15:44;8.10;;;6.15;;
27558;SDS011;15002;52.028;5.670;2022-08-14T10:18:11;8.32;;;5.60;;
27558;SDS011;15002;52.028;5.670;2022-08-14T10:20:40;6.82;;;5.68;;
27558;SDS011;15002;52.028;5.670;2022-08-14T10:23:20;7.38;;;5.25;;
27558;SDS011;15002;52.028;5.670;2022-08-14T10:25:47;13.13;;;5.80;;
27558;SDS011;15002;52.028;5.670;2022-08-14T10:28:21;7.20;;;5.88;;
27558;SDS011;15002;52.028;5.670;2022-08-14T10:30:47;7.60;;;5.75;;
27558;SDS011;15002;52.028;5.670;2022-08-14T10:33:28;7.55;;;5.82;;
27558;SDS011;15002;52.028;5.670;2022-08-14T10:35:56;8.60;;;5.75;;
27558;SDS011;15002;52.028;5.670;2022-08-14T10:38:34;6.32;;;5.68;;
27558;SDS011;15002;52.028;5.670;2022-08-14T10:43:42;9.00;;;4.95;;
27558;SDS011;15002;52.028;5.670;2022-08-14T10:46:11;5.90;;;5.40;;
27558;SDS011;15002;52.028;5.670;2022-08-14T10:48:53;7.68;;;5.90;;
27558;SDS011;15002;52.028;5.670;2022-08-14T10:51:24;9.05;;;5.78;;
27558;SDS011;15002;52.028;5.670;2022-08-14T10:53:54;5.75;;;5.30;;
27558;SDS011;15002;52.028;5.670;2022-08-14T10:56:31;5.25;;;4.85;;
27558;SDS011;15002;52.028;5.670;2022-08-14T10:59:08;8.20;;;5.25;;
27558;SDS011;15002;52.028;5.670;2022-08-14T11:01:35;6.90;;;5.50;;
27558;SDS011;15002;52.028;5.670;2022-08-14T11:04:02;7.97;;;5.40;;
27558;SDS011;15002;52.028;5.670;2022-08-14T11:06:28;6.45;;;5.65;;
27558;SDS011;15002;52.028;5.670;2022-08-14T11:08:55;9.77;;;5.85;;
27558;SDS011;15002;52.028;5.670;2022-08-14T11:11:22;9.00;;;5.78;;
27558;SDS011;15002;52.028;5.670;2022-08-14T11:13:53;7.43;;;5.95;;
27558;SDS011;15002;52.028;5.670;2022-08-14T11:16:21;7.70;;;6.10;;
27558;SDS011;15002;52.028;5.670;2022-08-14T11:18:48;5.40;;;4.90;;
27558;SDS011;15002;52.028;5.670;2022-08-14T11:21:15;7.78;;;5.75;;
27558;SDS011;15002;52.028;5.670;2022-08-14T11:23:47;9.35;;;5.95;;
27558;SDS011;15002;52.028;5.670;2022-08-14T11:26:16;7.63;;;6.45;;
27558;SDS011;15002;52.028;5.670;2022-08-14T11:28:47;7.10;;;6.32;;
27558;SDS011;15002;52.028;5.670;2022-08-14T11:31:14;12.70;;;6.18;;
27558;SDS011;15002;52.028;5.670;2022-08-14T11:33:47;9.13;;;6.30;;
27558;SDS011;15002;52.028;5.670;2022-08-14T11:36:20;7.70;;;5.82;;
27558;SDS011;15002;52.028;5.670;2022-08-14T11:38:52;7.18;;;6.40;;
27558;SDS011;15002;52.028;5.670;2022-08-14T11:41:18;9.35;;;6.38;;
27558;SDS011;15002;52.028;5.670;2022-08-14T11:43:45;7.32;;;6.47;;
27558;SDS011;15002;52.028;5.670;2022-08-14T11:46:12;6.85;;;5.72;;
27558;SDS011;15002;52.028;5.670;2022-08-14T11:48:46;10.63;;;6.30;;
27558;SDS011;15002;52.028;5.670;2022-08-14T11:51:17;13.98;;;6.55;;
27558;SDS011;15002;52.028;5.670;2022-08-14T11:53:50;6.18;;;5.45;;
27558;SDS011;15002;52.028;5.670;2022-08-14T11:56:18;7.22;;;6.53;;
27558;SDS011;15002;52.028;5.670;2022-08-14T11:58:44;9.05;;;6.22;;
27558;SDS011;15002;52.028;5.670;2022-08-14T12:01:15;7.63;;;5.53;;
27558;SDS011;15002;52.028;5.670;2022-08-14T12:03:51;10.45;;;5.68;;
27558;SDS011;15002;52.028;5.670;2022-08-14T12:06:17;8.00;;;4.90;;
27558;SDS011;15002;52.028;5.670;2022-08-14T12:08:44;4.43;;;4.03;;
27558;SDS011;15002;52.028;5.670;2022-08-14T12:11:11;7.80;;;5.85;;
27558;SDS011;15002;52.028;5.670;2022-08-14T12:13:38;6.47;;;5.70;;
27558;SDS011;15002;52.028;5.670;2022-08-14T12:16:05;11.48;;;5.78;;
27558;SDS011;15002;52.028;5.670;2022-08-14T12:18:34;5.65;;;5.18;;
27558;SDS011;15002;52.028;5.670;2022-08-14T12:23:41;7.40;;;5.43;;
27558;SDS011;15002;52.028;5.670;2022-08-14T12:26:09;22.17;;;6.35;;
27558;SDS011;15002;52.028;5.670;2022-08-14T12:28:38;17.80;;;5.90;;
27558;SDS011;15002;52.028;5.670;2022-08-14T12:31:11;14.38;;;5.90;;
27558;SDS011;15002;52.028;5.670;2022-08-14T12:33:54;6.40;;;5.80;;
27558;SDS011;15002;52.028;5.670;2022-08-14T12:36:24;7.03;;;6.43;;
27558;SDS011;15002;52.028;5.670;2022-08-14T12:39:00;6.57;;;5.88;;
27558;SDS011;15002;52.028;5.670;2022-08-14T12:41:31;6.10;;;5.55;;
27558;SDS011;15002;52.028;5.670;2022-08-14T12:44:04;6.45;;;5.90;;
27558;SDS011;15002;52.028;5.670;2022-08-14T12:46:37;7.60;;;5.93;;
27558;SDS011;15002;52.028;5.670;2022-08-14T12:49:08;13.98;;;6.53;;
27558;SDS011;15002;52.028;5.670;2022-08-14T12:51:35;6.10;;;5.50;;
27558;SDS011;15002;52.028;5.670;2022-08-14T12:54:11;6.63;;;5.85;;
27558;SDS011;15002;52.028;5.670;2022-08-14T12:56:44;7.03;;;6.20;;
27558;SDS011;15002;52.028;5.670;2022-08-14T12:59:11;7.97;;;5.90;;
27558;SDS011;15002;52.028;5.670;2022-08-14T13:01:38;10.60;;;6.15;;
27558;SDS011;15002;52.028;5.670;2022-08-14T13:04:12;11.20;;;6.15;;
27558;SDS011;15002;52.028;5.670;2022-08-14T13:06:42;7.13;;;6.50;;
27558;SDS011;15002;52.028;5.670;2022-08-14T13:09:09;10.73;;;7.10;;
27558;SDS011;15002;52.028;5.670;2022-08-14T13:14:05;12.52;;;6.00;;
27558;SDS011;15002;52.028;5.670;2022-08-14T13:16:31;7.45;;;6.20;;
27558;SDS011;15002;52.028;5.670;2022-08-14T13:18:57;8.43;;;6.45;;
27558;SDS011;15002;52.028;5.670;2022-08-14T13:21:26;7.57;;;6.88;;
27558;SDS011;15002;52.028;5.670;2022-08-14T13:23:54;6.60;;;6.00;;
27558;SDS011;15002;52.028;5.670;2022-08-14T13:26:23;6.55;;;5.82;;
27558;SDS011;15002;52.028;5.670;2022-08-14T13:28:50;8.10;;;6.40;;
27558;SDS011;15002;52.028;5.670;2022-08-14T13:31:16;8.02;;;6.32;;
27558;SDS011;15002;52.028;5.670;2022-08-14T13:33:46;7.67;;;5.87;;
27558;SDS011;15002;52.028;5.670;2022-08-14T13:36:13;10.80;;;6.30;;
27558;SDS011;15002;52.028;5.670;2022-08-14T13:38:41;6.75;;;5.95;;
27558;SDS011;15002;52.028;5.670;2022-08-14T13:41:09;6.57;;;5.97;;
27558;SDS011;15002;52.028;5.670;2022-08-14T13:43:35;9.27;;;6.03;;
27558;SDS011;15002;52.028;5.670;2022-08-14T13:46:04;10.07;;;6.10;;
27558;SDS011;15002;52.028;5.670;2022-08-14T13:48:30;12.13;;;5.93;;
27558;SDS011;15002;52.028;5.670;2022-08-14T13:50:56;7.03;;;6.30;;
27558;SDS011;15002;52.028;5.670;2022-08-14T13:53:23;7.88;;;6.43;;
27558;SDS011;15002;52.028;5.670;2022-08-14T13:55:51;6.97;;;6.28;;
27558;SDS011;15002;52.028;5.670;2022-08-14T13:58:18;6.18;;;5.65;;
27558;SDS011;15002;52.028;5.670;2022-08-14T14:00:46;7.20;;;6.60;;
27558;SDS011;15002;52.028;5.670;2022-08-14T14:03:16;7.28;;;6.13;;
27558;SDS011;15002;52.028;5.670;2022-08-14T14:05:43;10.57;;;5.35;;
27558;SDS011;15002;52.028;5.670;2022-08-14T14:08:09;8.90;;;5.50;;
27558;SDS011;15002;52.028;5.670;2022-08-14T14:10:37;9.25;;;6.32;;
27558;SDS011;15002;52.028;5.670;2022-08-14T14:13:03;7.28;;;5.70;;
27558;SDS011;15002;52.028;5.670;2022-08-14T14:15:30;6.88;;;6.18;;
27558;SDS011;15002;52.028;5.670;2022-08-14T14:17:55;11.70;;;6.30;;
27558;SDS011;15002;52.028;5.670;2022-08-14T14:20:24;6.13;;;5.57;;
27558;SDS011;15002;52.028;5.670;2022-08-14T14:22:50;9.68;;;5.60;;
27558;SDS011;15002;52.028;5.670;2022-08-14T14:25:18;12.10;;;6.30;;
27558;SDS011;15002;52.028;5.670;2022-08-14T14:27:47;13.57;;;5.70;;
27558;SDS011;15002;52.028;5.670;2022-08-14T14:30:14;6.43;;;5.82;;
27558;SDS011;15002;52.028;5.670;2022-08-14T14:32:41;8.90;;;6.07;;
27558;SDS011;15002;52.028;5.670;2022-08-14T14:35:10;6.28;;;5.65;;
27558;SDS011;15002;52.028;5.670;2022-08-14T14:37:39;6.50;;;5.63;;
27558;SDS011;15002;52.028;5.670;2022-08-14T14:40:06;6.93;;;5.88;;
27558;SDS011;15002;52.028;5.670;2022-08-14T14:42:32;6.10;;;5.60;;
27558;SDS011;15002;52.028;5.670;2022-08-14T14:45:09;6.05;;;5.55;;
27558;SDS011;15002;52.028;5.670;2022-08-14T14:52:37;6.75;;;5.85;;
27558;SDS011;15002;52.028;5.670;2022-08-14T14:55:04;9.80;;;6.10;;
27558;SDS011;15002;52.028;5.670;2022-08-14T14:57:31;6.93;;;6.28;;
27558;SDS011;15002;52.028;5.670;2022-08-14T14:59:57;9.73;;;6.03;;
27558;SDS011;15002;52.028;5.670;2022-08-14T15:02:25;8.07;;;5.88;;
27558;SDS011;15002;52.028;5.670;2022-08-14T15:04:58;8.52;;;5.68;;
27558;SDS011;15002;52.028;5.670;2022-08-14T15:07:24;6.95;;;6.25;;
27558;SDS011;15002;52.028;5.670;2022-08-14T15:09:50;6.03;;;5.53;;
27558;SDS011;15002;52.028;5.670;2022-08-14T15:12:15;6.78;;;6.05;;
27558;SDS011;15002;52.028;5.670;2022-08-14T15:14:41;10.88;;;5.90;;
27558;SDS011;15002;52.028;5.670;2022-08-14T15:17:07;6.43;;;5.80;;
27558;SDS011;15002;52.028;5.670;2022-08-14T15:19:33;6.07;;;5.57;;
27558;SDS011;15002;52.028;5.670;2022-08-14T15:21:59;5.90;;;5.40;;
27558;SDS011;15002;52.028;5.670;2022-08-14T15:24:25;8.95;;;5.90;;
27558;SDS011;15002;52.028;5.670;2022-08-14T15:26:50;6.28;;;5.68;;
27558;SDS011;15002;52.028;5.670;2022-08-14T15:29:16;7.57;;;5.78;;